sensor_id;sensor_type;location;lat;lon;timestamp;P1;durP1;ratioP1;P2;durP2;ratioP2
16426;SDS011;8322;-33.900;151.170;2022-09-16T00:02:26;1.50;;;0.80;;
16426;SDS011;8322;-33.900;151.170;2022-09-16T00:04:57;2.85;;;0.98;;
16426;SDS011;8322;-33.900;151.170;2022-09-16T00:07:28;2.28;;;1.15;;
16426;SDS011;8322;-33.900;151.170;2022-09-16T00:09:58;2.03;;;1.35;;
16426;SDS011;8322;-33.900;151.170;2022-09-16T00:12:28;1.38;;;0.90;;
16426;SDS011;8322;-33.900;151.170;2022-09-16T00:14:57;3.90;;;1.17;;
16426;SDS011;8322;-33.900;151.170;2022-09-16T00:17:27;2.67;;;1.23;;
16426;SDS011;8322;-33.900;151.170;2022-09-16T00:19:59;4.95;;;1.17;;
16426;SDS011;8322;-33.900;151.170;2022-09-16T00:22:29;1.95;;;0.95;;
16426;SDS011;8322;-33.900;151.170;2022-09-16T00:24:58;0.60;;;0.60;;
16426;SDS011;8322;-33.900;151.170;2022-09-16T00:27:28;0.98;;;0.85;;
16426;SDS011;8322;-33.900;151.170;2022-09-16T00:29:58;1.80;;;0.88;;
16426;SDS011;8322;-33.900;151.170;2022-09-16T00:32:28;1.05;;;0.90;;
16426;SDS011;8322;-33.900;151.170;2022-09-16T00:34:59;1.63;;;0.90;;
16426;SDS011;8322;-33.900;151.170;2022-09-16T00:37:30;3.10;;;1.08;;
16426;SDS011;8322;-33.900;151.170;2022-09-16T00:40:01;2.10;;;1.13;;
16426;SDS011;8322;-33.900;151.170;2022-09-16T00:42:31;1.17;;;0.90;;
16426;SDS011;8322;-33.900;151.170;2022-09-16T00:45:11;3.13;;;1.25;;
16426;SDS011;8322;-33.900;151.170;2022-09-16T00:47:42;3.00;;;1.20;;
16426;SDS011;8322;-33.900;151.170;2022-09-16T00:50:17;2.85;;;1.00;;
16426;SDS011;8322;-33.900;151.170;2022-09-16T00:52:51;2.90;;;1.60;;
16426;SDS011;8322;-33.900;151.170;2022-09-16T00:55:23;2.15;;;1.25;;
16426;SDS011;8322;-33.900;151.170;2022-09-16T00:57:54;1.25;;;1.15;;
16426;SDS011;8322;-33.900;151.170;2022-09-16T01:00:24;4.25;;;1.05;;
16426;SDS011;8322;-33.900;151.170;2022-09-16T01:02:54;1.85;;;0.98;;
16426;SDS011;8322;-33.900;151.170;2022-09-16T01:05:26;2.92;;;1.05;;
16426;SDS011;8322;-33.900;151.170;2022-09-16T01:07:56;3.38;;;1.10;;
16426;SDS011;8322;-33.900;151.170;2022-09-16T01:10:26;2.35;;;1.10;;
16426;SDS011;8322;-33.900;151.170;2022-09-16T01:12:57;4.50;;;1.20;;
16426;SDS011;8322;-33.900;151.170;2022-09-16T01:15:29;4.82;;;1.73;;
16426;SDS011;8322;-33.900;151.170;2022-09-16T01:18:03;2.70;;;0.90;;
16426;SDS011;8322;-33.900;151.170;2022-09-16T01:23:29;2.70;;;0.88;;
16426;SDS011;8322;-33.900;151.170;2022-09-16T01:26:09;2.70;;;0.90;;
16426;SDS011;8322;-33.900;151.170;2022-09-16T01:31:26;3.13;;;1.15;;
16426;SDS011;8322;-33.900;151.170;2022-09-16T01:33:58;2.80;;;1.20;;
16426;SDS011;8322;-33.900;151.170;2022-09-16T01:36:31;2.67;;;1.20;;
16426;SDS011;8322;-33.900;151.170;2022-09-16T01:39:08;1.88;;;0.80;;
16426;SDS011;8322;-33.900;151.170;2022-09-16T01:41:46;3.90;;;1.20;;
16426;SDS011;8322;-33.900;151.170;2022-09-16T01:44:20;1.73;;;0.90;;
16426;SDS011;8322;-33.900;151.170;2022-09-16T01:46:56;3.67;;;1.27;;
16426;SDS011;8322;-33.900;151.170;2022-09-16T01:49:31;3.80;;;1.05;;
16426;SDS011;8322;-33.900;151.170;2022-09-16T01:52:07;2.58;;;0.90;;
16426;SDS011;8322;-33.900;151.170;2022-09-16T01:54:39;1.52;;;0.68;;
16426;SDS011;8322;-33.900;151.170;2022-09-16T01:57:10;4.90;;;2.97;;
16426;SDS011;8322;-33.900;151.170;2022-09-16T01:59:46;3.20;;;1.50;;
16426;SDS011;8322;-33.900;151.170;2022-09-16T02:02:20;1.80;;;0.90;;
16426;SDS011;8322;-33.900;151.170;2022-09-16T02:04:52;1.75;;;1.17;;
16426;SDS011;8322;-33.900;151.170;2022-09-16T02:07:23;1.95;;;0.80;;
16426;SDS011;8322;-33.900;151.170;2022-09-16T02:09:55;2.03;;;1.00;;
16426;SDS011;8322;-33.900;151.170;2022-09-16T02:12:26;2.25;;;1.00;;
16426;SDS011;8322;-33.900;151.170;2022-09-16T02:15:02;1.55;;;1.10;;
16426;SDS011;8322;-33.900;151.170;2022-09-16T02:17:35;2.60;;;1.63;;
16426;SDS011;8322;-33.900;151.170;2022-09-16T02:20:08;5.47;;;3.15;;
16426;SDS011;8322;-33.900;151.170;2022-09-16T02:22:39;3.47;;;2.20;;
16426;SDS011;8322;-33.900;151.170;2022-09-16T02:25:09;3.50;;;2.88;;
16426;SDS011;8322;-33.900;151.170;2022-09-16T02:27:46;9.18;;;7.60;;
16426;SDS011;8322;-33.900;151.170;2022-09-16T02:30:17;7.30;;;3.40;;
16426;SDS011;8322;-33.900;151.170;2022-09-16T02:32:50;2.00;;;1.63;;
16426;SDS011;8322;-33.900;151.170;2022-09-16T02:35:21;2.58;;;1.40;;
16426;SDS011;8322;-33.900;151.170;2022-09-16T02:37:54;1.67;;;0.90;;
16426;SDS011;8322;-33.900;151.170;2022-09-16T02:40:24;2.80;;;0.93;;
16426;SDS011;8322;-33.900;151.170;2022-09-16T02:42:56;3.30;;;1.55;;
16426;SDS011;8322;-33.900;151.170;2022-09-16T02:45:28;1.52;;;1.00;;
16426;SDS011;8322;-33.900;151.170;2022-09-16T02:48:05;0.98;;;0.88;;
16426;SDS011;8322;-33.900;151.170;2022-09-16T02:50:42;4.90;;;1.90;;
16426;SDS011;8322;-33.900;151.170;2022-09-16T02:53:15;2.30;;;0.75;;
16426;SDS011;8322;-33.900;151.170;2022-09-16T02:55:49;1.23;;;0.90;;
16426;SDS011;8322;-33.900;151.170;2022-09-16T02:58:20;2.40;;;0.88;;
16426;SDS011;8322;-33.900;151.170;2022-09-16T03:00:50;1.65;;;1.02;;
16426;SDS011;8322;-33.900;151.170;2022-09-16T03:03:22;1.70;;;1.00;;
16426;SDS011;8322;-33.900;151.170;2022-09-16T03:08:55;2.35;;;1.00;;
16426;SDS011;8322;-33.900;151.170;2022-09-16T03:11:41;3.13;;;0.80;;
16426;SDS011;8322;-33.900;151.170;2022-09-16T03:14:19;1.58;;;0.80;;
16426;SDS011;8322;-33.900;151.170;2022-09-16T03:16:53;1.50;;;0.82;;
16426;SDS011;8322;-33.900;151.170;2022-09-16T03:19:28;0.73;;;0.63;;
16426;SDS011;8322;-33.900;151.170;2022-09-16T03:22:04;1.65;;;0.70;;
16426;SDS011;8322;-33.900;151.170;2022-09-16T03:24:37;1.48;;;0.63;;
16426;SDS011;8322;-33.900;151.170;2022-09-16T03:27:08;2.05;;;1.02;;
16426;SDS011;8322;-33.900;151.170;2022-09-16T03:29:40;3.38;;;0.90;;
16426;SDS011;8322;-33.900;151.170;2022-09-16T03:32:14;2.05;;;0.63;;
16426;SDS011;8322;-33.900;151.170;2022-09-16T03:34:49;1.50;;;0.80;;
16426;SDS011;8322;-33.900;151.170;2022-09-16T03:37:20;2.72;;;0.90;;
16426;SDS011;8322;-33.900;151.170;2022-09-16T03:39:50;3.70;;;0.60;;
16426;SDS011;8322;-33.900;151.170;2022-09-16T03:42:21;1.33;;;0.60;;
16426;SDS011;8322;-33.900;151.170;2022-09-16T03:44:50;2.38;;;1.00;;
16426;SDS011;8322;-33.900;151.170;2022-09-16T03:47:20;1.30;;;0.70;;
16426;SDS011;8322;-33.900;151.170;2022-09-16T03:49:52;1.15;;;0.60;;
16426;SDS011;8322;-33.900;151.170;2022-09-16T03:52:22;2.17;;;0.80;;
16426;SDS011;8322;-33.900;151.170;2022-09-16T03:54:51;1.67;;;0.55;;
16426;SDS011;8322;-33.900;151.170;2022-09-16T03:57:21;5.45;;;2.25;;
16426;SDS011;8322;-33.900;151.170;2022-09-16T03:59:53;2.08;;;0.68;;
16426;SDS011;8322;-33.900;151.170;2022-09-16T04:02:22;3.10;;;1.10;;
16426;SDS011;8322;-33.900;151.170;2022-09-16T04:04:54;1.27;;;0.80;;
16426;SDS011;8322;-33.900;151.170;2022-09-16T04:07:24;1.30;;;0.57;;
16426;SDS011;8322;-33.900;151.170;2022-09-16T04:09:54;2.80;;;1.15;;
16426;SDS011;8322;-33.900;151.170;2022-09-16T04:12:23;1.75;;;0.90;;
16426;SDS011;8322;-33.900;151.170;2022-09-16T04:14:53;2.75;;;1.10;;
16426;SDS011;8322;-33.900;151.170;2022-09-16T04:17:23;3.40;;;1.90;;
16426;SDS011;8322;-33.900;151.170;2022-09-16T04:19:55;2.58;;;1.13;;
16426;SDS011;8322;-33.900;151.170;2022-09-16T04:22:27;1.65;;;0.80;;
16426;SDS011;8322;-33.900;151.170;2022-09-16T04:24:56;1.63;;;0.60;;
16426;SDS011;8322;-33.900;151.170;2022-09-16T04:27:26;2.28;;;1.08;;
16426;SDS011;8322;-33.900;151.170;2022-09-16T04:29:56;3.50;;;0.90;;
16426;SDS011;8322;-33.900;151.170;2022-09-16T04:32:26;2.05;;;0.65;;
16426;SDS011;8322;-33.900;151.170;2022-09-16T04:34:57;1.80;;;0.70;;
16426;SDS011;8322;-33.900;151.170;2022-09-16T04:37:29;1.40;;;0.70;;
16426;SDS011;8322;-33.900;151.170;2022-09-16T04:39:59;1.60;;;0.77;;
16426;SDS011;8322;-33.900;151.170;2022-09-16T04:42:28;4.82;;;1.02;;
16426;SDS011;8322;-33.900;151.170;2022-09-16T04:44:58;1.67;;;0.60;;
16426;SDS011;8322;-33.900;151.170;2022-09-16T04:47:28;2.05;;;0.80;;
16426;SDS011;8322;-33.900;151.170;2022-09-16T04:50:00;1.00;;;0.60;;
16426;SDS011;8322;-33.900;151.170;2022-09-16T04:52:29;1.33;;;0.80;;
16426;SDS011;8322;-33.900;151.170;2022-09-16T04:54:59;1.77;;;0.90;;
16426;SDS011;8322;-33.900;151.170;2022-09-16T04:57:29;1.10;;;0.70;;
16426;SDS011;8322;-33.900;151.170;2022-09-16T04:59:59;2.90;;;0.80;;
16426;SDS011;8322;-33.900;151.170;2022-09-16T05:02:29;1.63;;;0.80;;
16426;SDS011;8322;-33.900;151.170;2022-09-16T05:05:00;1.52;;;0.70;;
16426;SDS011;8322;-33.900;151.170;2022-09-16T05:07:30;4.80;;;2.03;;
16426;SDS011;8322;-33.900;151.170;2022-09-16T05:10:00;2.00;;;1.02;;
16426;SDS011;8322;-33.900;151.170;2022-09-16T05:12:30;4.95;;;1.20;;
16426;SDS011;8322;-33.900;151.170;2022-09-16T05:14:59;2.97;;;1.10;;
16426;SDS011;8322;-33.900;151.170;2022-09-16T05:17:29;1.63;;;0.65;;
16426;SDS011;8322;-33.900;151.170;2022-09-16T05:20:01;1.33;;;0.77;;
16426;SDS011;8322;-33.900;151.170;2022-09-16T05:22:31;2.83;;;0.93;;
16426;SDS011;8322;-33.900;151.170;2022-09-16T05:25:00;1.60;;;0.65;;
16426;SDS011;8322;-33.900;151.170;2022-09-16T05:27:31;3.60;;;1.02;;
16426;SDS011;8322;-33.900;151.170;2022-09-16T05:30:01;3.20;;;1.05;;
16426;SDS011;8322;-33.900;151.170;2022-09-16T05:32:30;3.67;;;1.55;;
16426;SDS011;8322;-33.900;151.170;2022-09-16T05:35:02;1.67;;;0.70;;
16426;SDS011;8322;-33.900;151.170;2022-09-16T05:37:32;4.32;;;1.42;;
16426;SDS011;8322;-33.900;151.170;2022-09-16T05:40:02;3.95;;;1.40;;
16426;SDS011;8322;-33.900;151.170;2022-09-16T05:42:31;3.30;;;1.00;;
16426;SDS011;8322;-33.900;151.170;2022-09-16T05:45:01;1.98;;;0.80;;
16426;SDS011;8322;-33.900;151.170;2022-09-16T05:47:31;1.92;;;0.90;;
16426;SDS011;8322;-33.900;151.170;2022-09-16T05:50:03;2.17;;;0.60;;
16426;SDS011;8322;-33.900;151.170;2022-09-16T05:52:33;1.52;;;0.80;;
16426;SDS011;8322;-33.900;151.170;2022-09-16T05:55:03;3.75;;;0.60;;
16426;SDS011;8322;-33.900;151.170;2022-09-16T05:57:33;2.80;;;1.20;;
16426;SDS011;8322;-33.900;151.170;2022-09-16T06:00:03;2.63;;;0.90;;
16426;SDS011;8322;-33.900;151.170;2022-09-16T06:02:33;2.13;;;0.85;;
16426;SDS011;8322;-33.900;151.170;2022-09-16T06:05:05;1.80;;;0.90;;
16426;SDS011;8322;-33.900;151.170;2022-09-16T06:07:35;3.70;;;1.10;;
16426;SDS011;8322;-33.900;151.170;2022-09-16T06:10:05;3.40;;;1.10;;
16426;SDS011;8322;-33.900;151.170;2022-09-16T06:12:35;4.32;;;0.85;;
16426;SDS011;8322;-33.900;151.170;2022-09-16T06:15:05;2.60;;;1.02;;
16426;SDS011;8322;-33.900;151.170;2022-09-16T06:17:35;2.38;;;1.30;;
16426;SDS011;8322;-33.900;151.170;2022-09-16T06:20:07;3.65;;;1.20;;
16426;SDS011;8322;-33.900;151.170;2022-09-16T06:22:39;2.58;;;1.25;;
16426;SDS011;8322;-33.900;151.170;2022-09-16T06:25:09;6.57;;;4.35;;
16426;SDS011;8322;-33.900;151.170;2022-09-16T06:27:39;4.75;;;3.28;;
16426;SDS011;8322;-33.900;151.170;2022-09-16T06:30:09;2.53;;;1.48;;
16426;SDS011;8322;-33.900;151.170;2022-09-16T06:32:39;3.33;;;2.17;;
16426;SDS011;8322;-33.900;151.170;2022-09-16T06:35:11;3.78;;;2.40;;
16426;SDS011;8322;-33.900;151.170;2022-09-16T06:37:43;3.03;;;1.30;;
16426;SDS011;8322;-33.900;151.170;2022-09-16T06:40:12;6.70;;;3.20;;
16426;SDS011;8322;-33.900;151.170;2022-09-16T06:42:42;4.32;;;2.63;;
16426;SDS011;8322;-33.900;151.170;2022-09-16T06:45:12;3.30;;;1.30;;
16426;SDS011;8322;-33.900;151.170;2022-09-16T06:47:42;6.65;;;3.90;;
16426;SDS011;8322;-33.900;151.170;2022-09-16T06:50:14;5.88;;;3.10;;
16426;SDS011;8322;-33.900;151.170;2022-09-16T06:52:43;6.07;;;4.10;;
16426;SDS011;8322;-33.900;151.170;2022-09-16T06:55:13;6.85;;;2.83;;
16426;SDS011;8322;-33.900;151.170;2022-09-16T06:57:43;7.40;;;3.67;;
16426;SDS011;8322;-33.900;151.170;2022-09-16T07:00:13;3.92;;;1.90;;
16426;SDS011;8322;-33.900;151.170;2022-09-16T07:02:43;3.78;;;2.08;;
16426;SDS011;8322;-33.900;151.170;2022-09-16T07:05:15;4.35;;;1.60;;
16426;SDS011;8322;-33.900;151.170;2022-09-16T07:07:45;3.65;;;1.20;;
16426;SDS011;8322;-33.900;151.170;2022-09-16T07:10:14;2.95;;;1.77;;
16426;SDS011;8322;-33.900;151.170;2022-09-16T07:12:44;6.28;;;2.88;;
16426;SDS011;8322;-33.900;151.170;2022-09-16T07:15:14;8.52;;;3.78;;
16426;SDS011;8322;-33.900;151.170;2022-09-16T07:17:44;4.70;;;2.47;;
16426;SDS011;8322;-33.900;151.170;2022-09-16T07:20:16;7.07;;;3.88;;
16426;SDS011;8322;-33.900;151.170;2022-09-16T07:22:48;5.85;;;3.60;;
16426;SDS011;8322;-33.900;151.170;2022-09-16T07:25:19;7.18;;;4.38;;
16426;SDS011;8322;-33.900;151.170;2022-09-16T07:27:49;7.80;;;3.78;;
16426;SDS011;8322;-33.900;151.170;2022-09-16T07:30:18;4.63;;;3.15;;
16426;SDS011;8322;-33.900;151.170;2022-09-16T07:32:48;4.20;;;2.30;;
16426;SDS011;8322;-33.900;151.170;2022-09-16T07:35:20;12.07;;;7.13;;
16426;SDS011;8322;-33.900;151.170;2022-09-16T07:37:49;6.13;;;3.35;;
16426;SDS011;8322;-33.900;151.170;2022-09-16T07:40:19;3.33;;;2.33;;
16426;SDS011;8322;-33.900;151.170;2022-09-16T07:42:49;6.40;;;4.68;;
16426;SDS011;8322;-33.900;151.170;2022-09-16T07:45:19;5.47;;;2.70;;
16426;SDS011;8322;-33.900;151.170;2022-09-16T07:47:48;4.15;;;2.15;;
16426;SDS011;8322;-33.900;151.170;2022-09-16T07:50:20;2.65;;;2.00;;
16426;SDS011;8322;-33.900;151.170;2022-09-16T07:52:53;4.90;;;3.28;;
16426;SDS011;8322;-33.900;151.170;2022-09-16T07:55:22;6.97;;;5.15;;
16426;SDS011;8322;-33.900;151.170;2022-09-16T07:57:52;12.13;;;9.23;;
16426;SDS011;8322;-33.900;151.170;2022-09-16T08:00:22;5.30;;;3.42;;
16426;SDS011;8322;-33.900;151.170;2022-09-16T08:02:55;7.20;;;5.03;;
16426;SDS011;8322;-33.900;151.170;2022-09-16T08:05:27;6.45;;;3.53;;
16426;SDS011;8322;-33.900;151.170;2022-09-16T08:07:57;7.15;;;5.55;;
16426;SDS011;8322;-33.900;151.170;2022-09-16T08:10:27;12.45;;;9.32;;
16426;SDS011;8322;-33.900;151.170;2022-09-16T08:12:56;18.58;;;13.20;;
16426;SDS011;8322;-33.900;151.170;2022-09-16T08:15:26;11.35;;;8.20;;
16426;SDS011;8322;-33.900;151.170;2022-09-16T08:17:56;11.15;;;7.05;;
16426;SDS011;8322;-33.900;151.170;2022-09-16T08:20:28;6.55;;;3.50;;
16426;SDS011;8322;-33.900;151.170;2022-09-16T08:22:58;7.88;;;3.22;;
16426;SDS011;8322;-33.900;151.170;2022-09-16T08:25:27;10.65;;;5.50;;
16426;SDS011;8322;-33.900;151.170;2022-09-16T08:27:57;16.17;;;10.20;;
16426;SDS011;8322;-33.900;151.170;2022-09-16T08:30:27;15.30;;;11.95;;
16426;SDS011;8322;-33.900;151.170;2022-09-16T08:32:57;14.25;;;9.95;;
16426;SDS011;8322;-33.900;151.170;2022-09-16T08:35:29;13.95;;;9.23;;
16426;SDS011;8322;-33.900;151.170;2022-09-16T08:37:59;20.55;;;12.63;;
16426;SDS011;8322;-33.900;151.170;2022-09-16T08:40:30;19.15;;;11.55;;
16426;SDS011;8322;-33.900;151.170;2022-09-16T08:43:03;12.32;;;6.90;;
16426;SDS011;8322;-33.900;151.170;2022-09-16T08:45:40;14.45;;;5.13;;
16426;SDS011;8322;-33.900;151.170;2022-09-16T08:48:15;15.65;;;7.35;;
16426;SDS011;8322;-33.900;151.170;2022-09-16T08:50:48;19.33;;;11.57;;
16426;SDS011;8322;-33.900;151.170;2022-09-16T08:53:19;16.58;;;9.95;;
16426;SDS011;8322;-33.900;151.170;2022-09-16T08:55:52;8.57;;;5.82;;
16426;SDS011;8322;-33.900;151.170;2022-09-16T08:58:22;10.40;;;6.30;;
16426;SDS011;8322;-33.900;151.170;2022-09-16T09:00:53;16.00;;;9.43;;
16426;SDS011;8322;-33.900;151.170;2022-09-16T09:03:29;11.82;;;6.43;;
16426;SDS011;8322;-33.900;151.170;2022-09-16T09:06:05;11.57;;;6.28;;
16426;SDS011;8322;-33.900;151.170;2022-09-16T09:08:43;12.27;;;5.97;;
16426;SDS011;8322;-33.900;151.170;2022-09-16T09:11:17;44.70;;;28.73;;
16426;SDS011;8322;-33.900;151.170;2022-09-16T09:13:53;41.78;;;22.73;;
16426;SDS011;8322;-33.900;151.170;2022-09-16T09:16:33;24.08;;;14.40;;
16426;SDS011;8322;-33.900;151.170;2022-09-16T09:19:09;16.20;;;9.50;;
16426;SDS011;8322;-33.900;151.170;2022-09-16T09:21:43;13.45;;;6.60;;
16426;SDS011;8322;-33.900;151.170;2022-09-16T09:24:24;11.85;;;6.07;;
16426;SDS011;8322;-33.900;151.170;2022-09-16T09:26:56;12.30;;;6.43;;
16426;SDS011;8322;-33.900;151.170;2022-09-16T09:29:30;6.78;;;4.72;;
16426;SDS011;8322;-33.900;151.170;2022-09-16T09:32:06;12.07;;;4.75;;
16426;SDS011;8322;-33.900;151.170;2022-09-16T09:34:41;8.88;;;4.80;;
16426;SDS011;8322;-33.900;151.170;2022-09-16T09:37:25;9.02;;;5.32;;
16426;SDS011;8322;-33.900;151.170;2022-09-16T09:40:02;9.88;;;4.90;;
16426;SDS011;8322;-33.900;151.170;2022-09-16T09:42:35;11.45;;;6.22;;
16426;SDS011;8322;-33.900;151.170;2022-09-16T09:45:11;16.63;;;8.52;;
16426;SDS011;8322;-33.900;151.170;2022-09-16T09:47:44;12.50;;;6.70;;
16426;SDS011;8322;-33.900;151.170;2022-09-16T09:50:16;16.27;;;9.52;;
16426;SDS011;8322;-33.900;151.170;2022-09-16T09:52:50;16.73;;;7.82;;
16426;SDS011;8322;-33.900;151.170;2022-09-16T09:55:22;17.25;;;10.02;;
16426;SDS011;8322;-33.900;151.170;2022-09-16T09:58:00;13.88;;;8.05;;
16426;SDS011;8322;-33.900;151.170;2022-09-16T10:00:31;13.02;;;6.97;;
16426;SDS011;8322;-33.900;151.170;2022-09-16T10:03:01;19.98;;;11.45;;
16426;SDS011;8322;-33.900;151.170;2022-09-16T10:05:32;17.95;;;11.02;;
16426;SDS011;8322;-33.900;151.170;2022-09-16T10:08:08;9.45;;;5.50;;
16426;SDS011;8322;-33.900;151.170;2022-09-16T10:10:39;10.02;;;4.95;;
16426;SDS011;8322;-33.900;151.170;2022-09-16T10:13:13;11.73;;;5.70;;
16426;SDS011;8322;-33.900;151.170;2022-09-16T10:15:43;12.77;;;6.32;;
16426;SDS011;8322;-33.900;151.170;2022-09-16T10:18:13;13.27;;;6.93;;
16426;SDS011;8322;-33.900;151.170;2022-09-16T10:20:43;10.57;;;6.55;;
16426;SDS011;8322;-33.900;151.170;2022-09-16T10:23:24;13.20;;;8.52;;
16426;SDS011;8322;-33.900;151.170;2022-09-16T10:26:04;22.30;;;14.30;;
16426;SDS011;8322;-33.900;151.170;2022-09-16T10:28:34;8.90;;;4.68;;
16426;SDS011;8322;-33.900;151.170;2022-09-16T10:31:05;5.43;;;2.83;;
16426;SDS011;8322;-33.900;151.170;2022-09-16T10:33:39;4.63;;;2.50;;
16426;SDS011;8322;-33.900;151.170;2022-09-16T10:36:10;13.10;;;6.95;;
16426;SDS011;8322;-33.900;151.170;2022-09-16T10:38:48;5.70;;;2.63;;
16426;SDS011;8322;-33.900;151.170;2022-09-16T10:41:20;6.00;;;3.08;;
16426;SDS011;8322;-33.900;151.170;2022-09-16T10:43:51;7.45;;;3.40;;
16426;SDS011;8322;-33.900;151.170;2022-09-16T10:46:21;5.95;;;3.08;;
16426;SDS011;8322;-33.900;151.170;2022-09-16T10:48:51;5.60;;;2.22;;
16426;SDS011;8322;-33.900;151.170;2022-09-16T10:51:23;5.05;;;2.15;;
16426;SDS011;8322;-33.900;151.170;2022-09-16T10:53:55;5.53;;;1.63;;
16426;SDS011;8322;-33.900;151.170;2022-09-16T10:56:26;4.75;;;1.90;;
16426;SDS011;8322;-33.900;151.170;2022-09-16T10:59:03;3.55;;;1.80;;
16426;SDS011;8322;-33.900;151.170;2022-09-16T11:01:36;3.33;;;1.60;;
16426;SDS011;8322;-33.900;151.170;2022-09-16T11:07:07;3.45;;;1.75;;
16426;SDS011;8322;-33.900;151.170;2022-09-16T11:09:44;3.70;;;1.55;;
16426;SDS011;8322;-33.900;151.170;2022-09-16T11:15:06;4.13;;;2.67;;
16426;SDS011;8322;-33.900;151.170;2022-09-16T11:17:44;12.23;;;7.72;;
16426;SDS011;8322;-33.900;151.170;2022-09-16T11:20:41;14.40;;;9.40;;
16426;SDS011;8322;-33.900;151.170;2022-09-16T11:23:15;10.40;;;3.20;;
16426;SDS011;8322;-33.900;151.170;2022-09-16T11:25:51;4.20;;;1.45;;
16426;SDS011;8322;-33.900;151.170;2022-09-16T11:28:42;2.95;;;1.45;;
16426;SDS011;8322;-33.900;151.170;2022-09-16T11:31:16;4.57;;;1.30;;
16426;SDS011;8322;-33.900;151.170;2022-09-16T11:33:48;4.45;;;1.63;;
16426;SDS011;8322;-33.900;151.170;2022-09-16T11:36:30;2.38;;;1.35;;
16426;SDS011;8322;-33.900;151.170;2022-09-16T11:39:06;2.88;;;1.30;;
16426;SDS011;8322;-33.900;151.170;2022-09-16T11:41:42;2.58;;;1.30;;
16426;SDS011;8322;-33.900;151.170;2022-09-16T11:44:17;2.13;;;1.00;;
16426;SDS011;8322;-33.900;151.170;2022-09-16T11:46:54;3.35;;;1.15;;
16426;SDS011;8322;-33.900;151.170;2022-09-16T11:49:33;4.95;;;1.55;;
16426;SDS011;8322;-33.900;151.170;2022-09-16T11:52:13;5.07;;;1.60;;
16426;SDS011;8322;-33.900;151.170;2022-09-16T11:54:56;2.60;;;1.30;;
16426;SDS011;8322;-33.900;151.170;2022-09-16T11:57:35;3.67;;;1.10;;
16426;SDS011;8322;-33.900;151.170;2022-09-16T12:00:09;2.55;;;1.10;;
16426;SDS011;8322;-33.900;151.170;2022-09-16T12:02:43;3.03;;;1.42;;
16426;SDS011;8322;-33.900;151.170;2022-09-16T12:05:16;1.75;;;1.00;;
16426;SDS011;8322;-33.900;151.170;2022-09-16T12:07:48;3.22;;;1.08;;
16426;SDS011;8322;-33.900;151.170;2022-09-16T12:10:20;1.90;;;0.98;;
16426;SDS011;8322;-33.900;151.170;2022-09-16T12:12:53;3.80;;;1.50;;
16426;SDS011;8322;-33.900;151.170;2022-09-16T12:15:24;3.70;;;1.13;;
16426;SDS011;8322;-33.900;151.170;2022-09-16T12:17:56;4.00;;;1.13;;
16426;SDS011;8322;-33.900;151.170;2022-09-16T12:20:28;2.03;;;1.08;;
16426;SDS011;8322;-33.900;151.170;2022-09-16T12:23:00;3.90;;;1.00;;
16426;SDS011;8322;-33.900;151.170;2022-09-16T12:25:33;2.88;;;1.00;;
16426;SDS011;8322;-33.900;151.170;2022-09-16T12:28:08;3.15;;;1.00;;
16426;SDS011;8322;-33.900;151.170;2022-09-16T12:30:41;4.93;;;1.10;;
16426;SDS011;8322;-33.900;151.170;2022-09-16T12:33:13;1.38;;;0.77;;
16426;SDS011;8322;-33.900;151.170;2022-09-16T12:35:46;14.07;;;9.00;;
16426;SDS011;8322;-33.900;151.170;2022-09-16T12:38:18;3.80;;;1.58;;
16426;SDS011;8322;-33.900;151.170;2022-09-16T12:40:53;5.28;;;1.00;;
16426;SDS011;8322;-33.900;151.170;2022-09-16T12:43:39;3.28;;;1.10;;
16426;SDS011;8322;-33.900;151.170;2022-09-16T12:46:24;1.77;;;1.17;;
16426;SDS011;8322;-33.900;151.170;2022-09-16T12:49:05;3.00;;;0.75;;
16426;SDS011;8322;-33.900;151.170;2022-09-16T12:51:43;2.30;;;0.75;;
16426;SDS011;8322;-33.900;151.170;2022-09-16T12:54:21;5.40;;;1.58;;
16426;SDS011;8322;-33.900;151.170;2022-09-16T12:57:08;3.40;;;0.95;;
16426;SDS011;8322;-33.900;151.170;2022-09-16T13:02:28;2.20;;;0.90;;
16426;SDS011;8322;-33.900;151.170;2022-09-16T13:04:59;4.65;;;1.08;;
16426;SDS011;8322;-33.900;151.170;2022-09-16T13:07:32;1.58;;;0.73;;
16426;SDS011;8322;-33.900;151.170;2022-09-16T13:10:04;2.78;;;1.05;;
16426;SDS011;8322;-33.900;151.170;2022-09-16T13:12:34;3.45;;;0.90;;
16426;SDS011;8322;-33.900;151.170;2022-09-16T13:15:05;3.72;;;1.10;;
16426;SDS011;8322;-33.900;151.170;2022-09-16T13:17:37;2.97;;;0.82;;
16426;SDS011;8322;-33.900;151.170;2022-09-16T13:20:11;1.80;;;0.80;;
16426;SDS011;8322;-33.900;151.170;2022-09-16T13:22:43;2.15;;;0.90;;
16426;SDS011;8322;-33.900;151.170;2022-09-16T13:25:18;2.20;;;0.80;;
16426;SDS011;8322;-33.900;151.170;2022-09-16T13:27:54;2.45;;;0.70;;
16426;SDS011;8322;-33.900;151.170;2022-09-16T13:30:31;1.60;;;0.70;;
16426;SDS011;8322;-33.900;151.170;2022-09-16T13:35:49;2.50;;;1.00;;
16426;SDS011;8322;-33.900;151.170;2022-09-16T13:38:23;2.25;;;0.90;;
16426;SDS011;8322;-33.900;151.170;2022-09-16T13:40:54;3.50;;;0.90;;
16426;SDS011;8322;-33.900;151.170;2022-09-16T13:43:31;4.18;;;1.05;;
16426;SDS011;8322;-33.900;151.170;2022-09-16T13:46:02;1.92;;;0.90;;
16426;SDS011;8322;-33.900;151.170;2022-09-16T13:48:33;3.65;;;1.00;;
16426;SDS011;8322;-33.900;151.170;2022-09-16T13:51:08;3.42;;;1.08;;
16426;SDS011;8322;-33.900;151.170;2022-09-16T13:53:38;3.35;;;0.90;;
16426;SDS011;8322;-33.900;151.170;2022-09-16T13:56:17;2.92;;;0.70;;
16426;SDS011;8322;-33.900;151.170;2022-09-16T13:58:51;3.15;;;1.15;;
16426;SDS011;8322;-33.900;151.170;2022-09-16T14:01:23;1.40;;;0.70;;
16426;SDS011;8322;-33.900;151.170;2022-09-16T14:03:57;1.63;;;0.90;;
16426;SDS011;8322;-33.900;151.170;2022-09-16T14:09:29;2.63;;;1.00;;
16426;SDS011;8322;-33.900;151.170;2022-09-16T14:12:05;1.95;;;0.70;;
16426;SDS011;8322;-33.900;151.170;2022-09-16T14:14:40;2.53;;;0.80;;
16426;SDS011;8322;-33.900;151.170;2022-09-16T14:17:13;3.03;;;0.73;;
16426;SDS011;8322;-33.900;151.170;2022-09-16T14:19:44;2.55;;;0.90;;
16426;SDS011;8322;-33.900;151.170;2022-09-16T14:22:14;2.13;;;0.80;;
16426;SDS011;8322;-33.900;151.170;2022-09-16T14:24:46;1.23;;;0.77;;
16426;SDS011;8322;-33.900;151.170;2022-09-16T14:27:19;4.13;;;1.05;;
16426;SDS011;8322;-33.900;151.170;2022-09-16T14:29:56;1.77;;;0.63;;
16426;SDS011;8322;-33.900;151.170;2022-09-16T14:32:29;2.85;;;0.88;;
16426;SDS011;8322;-33.900;151.170;2022-09-16T14:35:00;1.02;;;0.73;;
16426;SDS011;8322;-33.900;151.170;2022-09-16T14:37:31;3.08;;;1.00;;
16426;SDS011;8322;-33.900;151.170;2022-09-16T14:40:04;2.70;;;0.77;;
16426;SDS011;8322;-33.900;151.170;2022-09-16T14:42:34;2.15;;;0.77;;
16426;SDS011;8322;-33.900;151.170;2022-09-16T14:45:05;3.70;;;0.80;;
16426;SDS011;8322;-33.900;151.170;2022-09-16T14:47:35;2.15;;;0.73;;
16426;SDS011;8322;-33.900;151.170;2022-09-16T14:50:09;2.60;;;0.85;;
16426;SDS011;8322;-33.900;151.170;2022-09-16T14:52:39;3.45;;;1.58;;
16426;SDS011;8322;-33.900;151.170;2022-09-16T14:55:12;3.45;;;1.27;;
16426;SDS011;8322;-33.900;151.170;2022-09-16T14:57:42;1.15;;;0.70;;
16426;SDS011;8322;-33.900;151.170;2022-09-16T15:00:13;2.13;;;0.80;;
16426;SDS011;8322;-33.900;151.170;2022-09-16T15:02:44;1.73;;;0.90;;
16426;SDS011;8322;-33.900;151.170;2022-09-16T15:05:19;3.40;;;1.27;;
16426;SDS011;8322;-33.900;151.170;2022-09-16T15:07:49;4.53;;;1.25;;
16426;SDS011;8322;-33.900;151.170;2022-09-16T15:10:22;2.67;;;0.95;;
16426;SDS011;8322;-33.900;151.170;2022-09-16T15:12:53;3.13;;;0.90;;